Time;durP1;ratioP1;P1;durP2;ratioP2;P2;SDS_P1;SDS_P2;PMS_P1;PMS_P2;Temp;Humidity;BMP_temperature;BMP_pressure;BME280_temperature;BME280_humidity;BME280_pressure;Samples;Min_cycle;Max_cycle;Signal;HPM_P1;HPM_P2
2023/05/23 00:01:36;;;;;;;8.32;5.45;;;;;;;;;;4931435;28;20090;-69
2023/05/23 00:04:05;;;;;;;6.55;4.97;;;;;;;;;;4920411;28;20050;-69
2023/05/23 00:06:31;;;;;;;6.53;5.25;;;;;;;;;;4935710;28;20045;-69
2023/05/23 00:08:56;;;;;;;7.00;4.85;;;;;;;;;;4936889;28;20680;-69
2023/05/23 00:11:25;;;;;;;7.20;4.95;;;;;;;;;;4938193;28;20527;-69
2023/05/23 00:13:52;;;;;;;9.23;4.82;;;;;;;;;;4927278;28;20031;-69
2023/05/23 00:16:17;;;;;;;6.45;5.00;;;;;;;;;;4925046;28;20074;-69
2023/05/23 00:18:44;;;;;;;6.85;4.80;;;;;;;;;;4936361;28;20570;-69
2023/05/23 00:21:10;;;;;;;5.80;4.75;;;;;;;;;;4935702;28;20120;-69
2023/05/23 00:23:35;;;;;;;7.05;5.38;;;;;;;;;;4934650;28;20503;-69
2023/05/23 00:26:01;;;;;;;7.93;5.75;;;;;;;;;;4932499;28;20126;-69
2023/05/23 00:28:26;;;;;;;8.25;6.70;;;;;;;;;;4916312;28;20119;-69
2023/05/23 00:30:52;;;;;;;7.55;6.00;;;;;;;;;;4925988;28;20054;-69
2023/05/23 00:33:21;;;;;;;7.22;5.60;;;;;;;;;;4940017;28;20118;-69
2023/05/23 00:35:47;;;;;;;6.25;5.38;;;;;;;;;;4941071;28;20042;-69
2023/05/23 00:38:13;;;;;;;6.97;5.22;;;;;;;;;;4923044;28;20040;-69
2023/05/23 00:40:38;;;;;;;6.88;5.53;;;;;;;;;;4926550;28;20073;-69
2023/05/23 00:43:04;;;;;;;6.57;5.53;;;;;;;;;;4938597;28;20039;-69
2023/05/23 00:45:30;;;;;;;7.53;5.68;;;;;;;;;;4931947;28;20447;-69
2023/05/23 00:47:55;;;;;;;8.63;6.15;;;;;;;;;;4930740;28;20555;-69
2023/05/23 00:50:21;;;;;;;8.13;6.28;;;;;;;;;;4928681;28;20130;-69
2023/05/23 00:52:48;;;;;;;7.38;5.70;;;;;;;;;;4923282;28;20509;-69
2023/05/23 00:55:14;;;;;;;8.25;5.97;;;;;;;;;;4919490;28;20097;-69
2023/05/23 00:57:40;;;;;;;7.70;6.60;;;;;;;;;;4938806;28;20043;-69
2023/05/23 01:00:10;;;;;;;8.85;5.55;;;;;;;;;;4920266;28;20473;-69
2023/05/23 01:02:49;;;;;;;8.52;5.68;;;;;;;;;;4934421;28;20507;-69
2023/05/23 01:05:21;;;;;;;6.88;5.00;;;;;;;;;;4939569;28;20588;-69
2023/05/23 01:07:47;;;;;;;6.85;5.38;;;;;;;;;;4930911;28;20164;-69
2023/05/23 01:10:15;;;;;;;6.43;4.90;;;;;;;;;;4920812;28;20035;-69
2023/05/23 01:13:01;;;;;;;6.63;4.85;;;;;;;;;;4940550;28;20045;-69
2023/05/23 01:15:33;;;;;;;8.35;5.28;;;;;;;;;;4940042;28;20079;-69
2023/05/23 01:18:07;;;;;;;8.50;5.18;;;;;;;;;;4916072;29;20734;-69
2023/05/23 01:21:17;;;;;;;6.80;5.05;;;;;;;;;;4914985;28;20672;-68
2023/05/23 01:24:01;;;;;;;7.57;5.43;;;;;;;;;;4914800;28;20038;-68
2023/05/23 01:26:56;;;;;;;6.50;4.78;;;;;;;;;;4938366;28;20065;-68
2023/05/23 01:29:26;;;;;;;7.07;5.40;;;;;;;;;;4904700;28;20057;-68
2023/05/23 01:31:54;;;;;;;7.43;5.40;;;;;;;;;;4930380;28;20043;-68
2023/05/23 01:34:20;;;;;;;6.40;5.35;;;;;;;;;;4938956;28;20055;-68
2023/05/23 01:36:49;;;;;;;7.22;5.70;;;;;;;;;;4937292;28;20169;-68
2023/05/23 01:39:14;;;;;;;8.30;6.55;;;;;;;;;;4939130;28;20044;-68
2023/05/23 01:41:40;;;;;;;7.88;6.45;;;;;;;;;;4916804;28;20584;-68
2023/05/23 01:44:06;;;;;;;9.18;7.20;;;;;;;;;;4931767;28;20579;-69
2023/05/23 01:46:34;;;;;;;13.02;7.28;;;;;;;;;;4939345;28;20040;-68
2023/05/23 01:49:02;;;;;;;8.77;6.88;;;;;;;;;;4937509;28;20126;-68
2023/05/23 01:51:29;;;;;;;9.90;6.75;;;;;;;;;;4940200;28;20047;-68
2023/05/23 01:53:55;;;;;;;8.32;6.70;;;;;;;;;;4928452;28;20798;-68
2023/05/23 01:56:21;;;;;;;7.80;6.38;;;;;;;;;;4914330;28;20090;-68
2023/05/23 01:58:47;;;;;;;8.85;6.43;;;;;;;;;;4934440;28;20034;-68
2023/05/23 02:01:12;;;;;;;9.75;6.65;;;;;;;;;;4933234;28;20542;-68
2023/05/23 02:03:38;;;;;;;9.30;6.85;;;;;;;;;;4939933;28;20511;-68
2023/05/23 02:06:03;;;;;;;10.07;6.18;;;;;;;;;;4932890;28;20102;-68
2023/05/23 02:08:28;;;;;;;9.30;6.75;;;;;;;;;;4920104;28;20038;-68
2023/05/23 02:10:54;;;;;;;8.27;6.38;;;;;;;;;;4937471;28;20687;-68
2023/05/23 02:13:19;;;;;;;8.50;6.00;;;;;;;;;;4938340;28;20051;-68
2023/05/23 02:15:45;;;;;;;9.05;6.68;;;;;;;;;;4934234;28;20043;-69
2023/05/23 02:18:10;;;;;;;7.03;5.20;;;;;;;;;;4935694;28;20047;-68
2023/05/23 02:20:35;;;;;;;7.85;5.68;;;;;;;;;;4940283;28;20066;-68
2023/05/23 02:23:01;;;;;;;7.93;6.18;;;;;;;;;;4917105;28;20046;-68
2023/05/23 02:25:26;;;;;;;7.38;5.63;;;;;;;;;;4938096;28;20149;-69
2023/05/23 02:27:51;;;;;;;7.05;5.32;;;;;;;;;;4933522;28;20054;-68
2023/05/23 02:30:17;;;;;;;9.27;5.95;;;;;;;;;;4936210;28;20042;-68
2023/05/23 02:32:42;;;;;;;8.68;5.80;;;;;;;;;;4932794;28;20063;-68
2023/05/23 02:35:09;;;;;;;7.75;6.47;;;;;;;;;;4935516;28;20549;-68
2023/05/23 02:37:34;;;;;;;7.95;5.47;;;;;;;;;;4916483;28;20126;-68
2023/05/23 02:40:00;;;;;;;9.00;6.53;;;;;;;;;;4936204;28;20138;-68
2023/05/23 02:42:25;;;;;;;9.65;6.68;;;;;;;;;;4939015;28;20051;-68
2023/05/23 02:44:51;;;;;;;8.65;6.60;;;;;;;;;;4937127;28;20058;-68
2023/05/23 02:47:16;;;;;;;8.73;6.60;;;;;;;;;;4934995;28;20531;-68
2023/05/23 02:49:41;;;;;;;10.73;6.45;;;;;;;;;;4933667;28;20054;-68
2023/05/23 02:52:07;;;;;;;10.75;8.30;;;;;;;;;;4917045;28;20528;-68
2023/05/23 02:54:32;;;;;;;11.85;8.10;;;;;;;;;;4939248;28;20093;-68
2023/05/23 02:56:58;;;;;;;12.90;8.80;;;;;;;;;;4934824;28;20101;-68
2023/05/23 02:59:23;;;;;;;9.50;7.25;;;;;;;;;;4935558;28;20077;-68
2023/05/23 03:01:49;;;;;;;12.82;8.52;;;;;;;;;;4929323;28;20035;-68
2023/05/23 03:04:14;;;;;;;10.38;8.55;;;;;;;;;;4930777;28;20050;-69
2023/05/23 03:06:41;;;;;;;11.50;9.38;;;;;;;;;;4920028;28;20048;-69
2023/05/23 03:09:07;;;;;;;13.13;8.82;;;;;;;;;;4933635;28;20086;-68
2023/05/23 03:11:33;;;;;;;12.68;9.50;;;;;;;;;;4931194;28;20586;-68
2023/05/23 03:13:58;;;;;;;13.05;9.68;;;;;;;;;;4936123;28;20047;-68
2023/05/23 03:16:23;;;;;;;12.93;9.55;;;;;;;;;;4937053;28;20047;-68
2023/05/23 03:18:49;;;;;;;12.50;10.23;;;;;;;;;;4936124;28;20500;-68
2023/05/23 03:21:14;;;;;;;12.43;10.30;;;;;;;;;;4916926;28;20040;-69
2023/05/23 03:23:40;;;;;;;13.30;10.35;;;;;;;;;;4933225;28;20415;-68
2023/05/23 03:26:05;;;;;;;14.85;10.73;;;;;;;;;;4936297;28;20071;-69
2023/05/23 03:28:31;;;;;;;12.88;10.80;;;;;;;;;;4939419;28;20518;-68
2023/05/23 03:30:57;;;;;;;13.55;10.77;;;;;;;;;;4932818;28;20047;-68
2023/05/23 03:33:22;;;;;;;13.82;11.75;;;;;;;;;;4921867;28;20684;-68
2023/05/23 03:35:47;;;;;;;17.77;12.27;;;;;;;;;;4912644;28;20047;-68
2023/05/23 03:38:13;;;;;;;15.23;11.65;;;;;;;;;;4936853;28;20066;-68
2023/05/23 03:40:39;;;;;;;15.95;12.23;;;;;;;;;;4938760;28;20035;-68
2023/05/23 03:43:05;;;;;;;13.77;11.95;;;;;;;;;;4935619;28;20066;-68
2023/05/23 03:45:32;;;;;;;17.67;13.23;;;;;;;;;;4931456;28;20067;-68
2023/05/23 03:47:58;;;;;;;17.23;12.73;;;;;;;;;;4914130;28;20046;-68
2023/05/23 03:50:24;;;;;;;18.73;12.80;;;;;;;;;;4937677;28;20655;-68
2023/05/23 03:52:49;;;;;;;18.85;13.93;;;;;;;;;;4934517;28;20051;-68
2023/05/23 03:55:15;;;;;;;19.17;13.52;;;;;;;;;;4932832;28;20510;-68
2023/05/23 03:57:40;;;;;;;16.00;12.85;;;;;;;;;;4937147;28;20358;-69
2023/05/23 04:00:10;;;;;;;18.05;12.93;;;;;;;;;;4937351;28;20039;-68
2023/05/23 04:02:36;;;;;;;19.77;13.43;;;;;;;;;;4915850;28;20039;-68
2023/05/23 04:05:02;;;;;;;16.48;11.20;;;;;;;;;;4938828;28;20464;-68
2023/05/23 04:07:27;;;;;;;15.60;12.85;;;;;;;;;;4937833;28;20575;-68
2023/05/23 04:09:53;;;;;;;15.10;10.50;;;;;;;;;;4940146;28;20051;-68
2023/05/23 04:12:20;;;;;;;12.52;8.98;;;;;;;;;;4940620;28;20047;-68
2023/05/23 04:14:46;;;;;;;10.60;8.73;;;;;;;;;;4941715;28;20593;-68
2023/05/23 04:17:12;;;;;;;9.77;7.90;;;;;;;;;;4914858;28;20076;-68
2023/05/23 04:19:37;;;;;;;11.07;8.85;;;;;;;;;;4937741;28;20036;-68
2023/05/23 04:22:03;;;;;;;11.77;8.52;;;;;;;;;;4936363;28;20038;-68
2023/05/23 04:24:28;;;;;;;11.63;7.90;;;;;;;;;;4942168;28;20043;-68
2023/05/23 04:26:55;;;;;;;9.52;7.40;;;;;;;;;;4937165;28;20520;-68
2023/05/23 04:29:20;;;;;;;10.32;7.50;;;;;;;;;;4907104;28;20123;-68
2023/05/23 04:31:46;;;;;;;7.95;6.57;;;;;;;;;;4936230;28;20658;-68
2023/05/23 04:34:11;;;;;;;10.60;6.47;;;;;;;;;;4939125;28;20038;-68
2023/05/23 04:36:37;;;;;;;8.52;6.22;;;;;;;;;;4934983;28;20078;-68
2023/05/23 04:39:04;;;;;;;11.43;6.85;;;;;;;;;;4931901;28;20031;-68
2023/05/23 04:41:30;;;;;;;8.32;6.43;;;;;;;;;;4939296;28;20053;-68
2023/05/23 04:43:57;;;;;;;9.68;6.78;;;;;;;;;;4917286;28;20619;-68
2023/05/23 04:46:25;;;;;;;8.77;6.47;;;;;;;;;;4934020;28;20884;-68
2023/05/23 04:48:51;;;;;;;10.05;7.00;;;;;;;;;;4934516;28;20917;-68
2023/05/23 04:51:17;;;;;;;9.70;6.65;;;;;;;;;;4933415;28;20126;-68
2023/05/23 04:53:43;;;;;;;8.40;6.65;;;;;;;;;;4938931;28;20133;-68
2023/05/23 04:56:08;;;;;;;9.85;6.75;;;;;;;;;;4934464;28;20953;-68
2023/05/23 04:58:34;;;;;;;8.98;6.63;;;;;;;;;;4919014;28;20046;-68
2023/05/23 05:01:00;;;;;;;9.35;6.68;;;;;;;;;;4927550;28;20063;-68
2023/05/23 05:03:25;;;;;;;8.82;6.40;;;;;;;;;;4931626;28;20051;-68
2023/05/23 05:05:52;;;;;;;9.20;6.32;;;;;;;;;;4940656;28;20325;-68
2023/05/23 05:08:18;;;;;;;9.48;7.13;;;;;;;;;;4936710;28;20103;-68
2023/05/23 05:10:44;;;;;;;8.57;6.10;;;;;;;;;;4927785;28;20368;-69
2023/05/23 05:13:09;;;;;;;10.10;5.93;;;;;;;;;;4901800;28;20473;-68
2023/05/23 05:15:35;;;;;;;8.95;6.30;;;;;;;;;;4935048;28;20039;-68
2023/05/23 05:18:00;;;;;;;9.15;6.32;;;;;;;;;;4933989;28;20046;-68
2023/05/23 05:20:26;;;;;;;9.85;6.60;;;;;;;;;;4938976;28;20070;-68
2023/05/23 05:22:56;;;;;;;8.80;6.50;;;;;;;;;;4932206;28;20066;-68
2023/05/23 05:25:22;;;;;;;8.15;6.20;;;;;;;;;;4918656;28;20054;-68
2023/05/23 05:27:47;;;;;;;9.27;5.90;;;;;;;;;;4937229;28;20038;-68
2023/05/23 05:30:12;;;;;;;8.63;5.65;;;;;;;;;;4935133;28;20043;-68
2023/05/23 05:32:38;;;;;;;9.02;6.60;;;;;;;;;;4932116;28;20807;-68
2023/05/23 05:35:04;;;;;;;8.20;6.00;;;;;;;;;;4918772;28;20055;-69
2023/05/23 05:37:29;;;;;;;8.73;6.50;;;;;;;;;;4930956;28;20039;-67
2023/05/23 05:39:55;;;;;;;9.77;6.35;;;;;;;;;;4915178;28;20030;-68
2023/05/23 05:42:23;;;;;;;8.68;6.25;;;;;;;;;;4935581;28;20047;-68
2023/05/23 05:44:48;;;;;;;7.57;5.97;;;;;;;;;;4933342;28;20047;-67
2023/05/23 05:47:14;;;;;;;9.77;6.75;;;;;;;;;;4932645;28;20688;-68
2023/05/23 05:49:40;;;;;;;7.03;5.40;;;;;;;;;;4939926;28;20412;-68
2023/05/23 05:52:07;;;;;;;7.95;5.25;;;;;;;;;;4937689;28;20083;-69
2023/05/23 05:54:32;;;;;;;7.63;5.30;;;;;;;;;;4921493;28;21962;-68
2023/05/23 05:56:58;;;;;;;6.30;4.70;;;;;;;;;;4933447;28;20081;-68
2023/05/23 05:59:23;;;;;;;7.47;4.53;;;;;;;;;;4936921;28;20043;-68
2023/05/23 06:01:50;;;;;;;16.08;4.70;;;;;;;;;;4935206;28;20492;-69
2023/05/23 06:04:16;;;;;;;6.53;4.28;;;;;;;;;;4936424;28;20040;-68
2023/05/23 06:06:41;;;;;;;6.40;4.53;;;;;;;;;;4920738;28;20047;-69
2023/05/23 06:09:07;;;;;;;7.75;4.68;;;;;;;;;;4933604;28;20135;-69
2023/05/23 06:11:32;;;;;;;7.38;4.68;;;;;;;;;;4936329;28;20427;-69
2023/05/23 06:13:57;;;;;;;7.53;4.22;;;;;;;;;;4936966;28;20071;-68
2023/05/23 06:16:23;;;;;;;6.10;4.30;;;;;;;;;;4934990;28;20046;-68
2023/05/23 06:18:48;;;;;;;5.68;3.70;;;;;;;;;;4931909;28;20114;-68
2023/05/23 06:21:14;;;;;;;5.35;3.83;;;;;;;;;;4902999;28;20184;-69
2023/05/23 06:23:40;;;;;;;6.82;4.00;;;;;;;;;;4926060;28;20403;-68
2023/05/23 06:26:09;;;;;;;5.32;3.47;;;;;;;;;;4929736;28;20070;-68
2023/05/23 06:28:35;;;;;;;5.03;3.33;;;;;;;;;;4934587;28;20063;-68
2023/05/23 06:31:00;;;;;;;5.40;3.10;;;;;;;;;;4932203;28;20523;-68
2023/05/23 06:33:26;;;;;;;4.65;3.13;;;;;;;;;;4938262;28;20039;-68
2023/05/23 06:35:52;;;;;;;5.18;2.65;;;;;;;;;;4901180;28;20073;-68
2023/05/23 06:38:17;;;;;;;4.30;3.00;;;;;;;;;;4924970;28;20100;-69
2023/05/23 06:40:43;;;;;;;6.13;3.10;;;;;;;;;;4929407;28;20041;-68
2023/05/23 06:43:08;;;;;;;10.70;3.63;;;;;;;;;;4933992;28;20404;-68
2023/05/23 06:45:34;;;;;;;4.35;2.70;;;;;;;;;;4936595;28;20047;-68
2023/05/23 06:48:00;;;;;;;4.93;3.00;;;;;;;;;;4932093;28;20039;-68
2023/05/23 06:50:25;;;;;;;6.07;3.30;;;;;;;;;;4914597;28;20047;-68
2023/05/23 06:52:51;;;;;;;4.88;4.15;;;;;;;;;;4915012;28;20619;-68
2023/05/23 06:55:18;;;;;;;4.10;2.42;;;;;;;;;;4937422;28;20041;-68
2023/05/23 06:57:44;;;;;;;3.88;2.80;;;;;;;;;;4936915;28;20649;-68
2023/05/23 07:00:12;;;;;;;4.28;2.67;;;;;;;;;;4929508;28;20042;-68
2023/05/23 07:02:37;;;;;;;4.90;2.75;;;;;;;;;;4910770;28;20495;-68
2023/05/23 07:05:03;;;;;;;6.32;2.85;;;;;;;;;;4932379;28;20075;-68
2023/05/23 07:07:28;;;;;;;5.57;3.10;;;;;;;;;;4937127;28;20122;-68
2023/05/23 07:09:54;;;;;;;4.03;2.88;;;;;;;;;;4932396;28;20122;-68
2023/05/23 07:12:19;;;;;;;4.55;2.63;;;;;;;;;;4935535;28;20055;-68
2023/05/23 07:14:45;;;;;;;4.13;2.67;;;;;;;;;;4934577;28;20046;-68
2023/05/23 07:17:10;;;;;;;4.45;2.67;;;;;;;;;;4912815;28;20039;-68
2023/05/23 07:19:36;;;;;;;3.78;2.20;;;;;;;;;;4938696;28;20057;-68
2023/05/23 07:22:02;;;;;;;3.75;2.22;;;;;;;;;;4939591;28;20035;-68
2023/05/23 07:24:27;;;;;;;2.85;1.90;;;;;;;;;;4925600;28;20054;-68
2023/05/23 07:26:52;;;;;;;3.72;2.38;;;;;;;;;;4930027;28;20046;-68
2023/05/23 07:29:18;;;;;;;3.28;2.15;;;;;;;;;;4938651;28;20069;-68
2023/05/23 07:31:43;;;;;;;4.90;2.38;;;;;;;;;;4919491;28;20491;-68
2023/05/23 07:34:09;;;;;;;2.70;1.98;;;;;;;;;;4937812;28;20043;-68
2023/05/23 07:36:36;;;;;;;3.38;2.35;;;;;;;;;;4922927;29;20134;-68
2023/05/23 07:39:02;;;;;;;3.05;2.03;;;;;;;;;;4926132;28;20724;-68
2023/05/23 07:41:27;;;;;;;3.05;2.10;;;;;;;;;;4940578;28;20042;-68
2023/05/23 07:43:53;;;;;;;3.08;2.15;;;;;;;;;;4938405;28;20102;-69
2023/05/23 07:46:18;;;;;;;2.80;1.90;;;;;;;;;;4918785;28;22012;-69
2023/05/23 07:48:44;;;;;;;3.25;2.10;;;;;;;;;;4940354;28;20058;-69
2023/05/23 07:51:09;;;;;;;5.18;2.42;;;;;;;;;;4924227;28;20039;-69
2023/05/23 07:53:38;;;;;;;2.63;1.70;;;;;;;;;;4943361;28;20039;-68
2023/05/23 07:56:04;;;;;;;2.78;2.00;;;;;;;;;;4937014;28;20066;-68
2023/05/23 07:58:30;;;;;;;3.30;1.95;;;;;;;;;;4937489;28;20031;-68
2023/05/23 08:00:56;;;;;;;4.50;2.30;;;;;;;;;;4918581;28;20083;-68
2023/05/23 08:03:22;;;;;;;4.38;2.28;;;;;;;;;;4939862;28;20594;-68
2023/05/23 08:05:47;;;;;;;3.17;2.20;;;;;;;;;;4939255;28;20043;-68
2023/05/23 08:08:13;;;;;;;4.18;2.05;;;;;;;;;;4932829;28;20850;-68
2023/05/23 08:10:38;;;;;;;4.55;2.63;;;;;;;;;;4935947;28;20043;-68
2023/05/23 08:13:05;;;;;;;4.90;2.47;;;;;;;;;;4917195;28;20653;-69
2023/05/23 08:15:32;;;;;;;3.30;2.17;;;;;;;;;;4929960;28;20064;-69
2023/05/23 08:17:59;;;;;;;3.78;2.25;;;;;;;;;;4935714;28;20046;-69
2023/05/23 08:20:29;;;;;;;2.40;1.63;;;;;;;;;;4931640;28;20476;-69
2023/05/23 08:22:59;;;;;;;3.73;2.33;;;;;;;;;;4937022;28;20816;-69
2023/05/23 08:25:25;;;;;;;3.50;2.60;;;;;;;;;;4939426;28;20138;-69
2023/05/23 08:27:50;;;;;;;3.70;2.40;;;;;;;;;;4919609;28;20115;-69
2023/05/23 08:30:16;;;;;;;4.43;2.40;;;;;;;;;;4932819;28;20039;-69
2023/05/23 08:32:41;;;;;;;4.20;2.78;;;;;;;;;;4936612;28;20035;-69
2023/05/23 08:35:07;;;;;;;4.25;3.00;;;;;;;;;;4927219;28;20061;-69
2023/05/23 08:37:32;;;;;;;5.18;2.70;;;;;;;;;;4936488;28;20105;-69
2023/05/23 08:39:58;;;;;;;4.15;2.72;;;;;;;;;;4907639;28;20508;-69
2023/05/23 08:42:23;;;;;;;5.90;2.88;;;;;;;;;;4906125;28;20074;-69
2023/05/23 08:44:48;;;;;;;3.55;2.40;;;;;;;;;;4933866;28;20054;-69
2023/05/23 08:47:16;;;;;;;4.47;2.92;;;;;;;;;;4936403;28;20163;-69
2023/05/23 08:49:42;;;;;;;4.40;2.95;;;;;;;;;;4936567;28;20055;-69
2023/05/23 08:52:11;;;;;;;4.43;2.45;;;;;;;;;;4933750;28;20728;-69
2023/05/23 08:54:37;;;;;;;3.72;2.55;;;;;;;;;;4914182;28;20035;-69
2023/05/23 08:57:02;;;;;;;3.50;2.45;;;;;;;;;;4939422;28;20035;-69
2023/05/23 08:59:29;;;;;;;3.35;2.03;;;;;;;;;;4943830;28;20113;-69
2023/05/23 09:01:55;;;;;;;3.63;1.98;;;;;;;;;;4943090;28;20901;-69
2023/05/23 09:04:21;;;;;;;4.05;2.30;;;;;;;;;;4919326;28;20760;-69
2023/05/23 09:06:46;;;;;;;2.92;1.77;;;;;;;;;;4942483;28;20074;-70
2023/05/23 09:09:12;;;;;;;2.35;1.50;;;;;;;;;;4919337;28;20039;-69
2023/05/23 09:11:38;;;;;;;3.33;1.60;;;;;;;;;;4932744;28;20075;-69
2023/05/23 09:14:06;;;;;;;2.67;1.80;;;;;;;;;;4932051;28;20038;-69
2023/05/23 09:16:33;;;;;;;2.33;1.50;;;;;;;;;;4937419;28;20043;-70
2023/05/23 09:19:08;;;;;;;2.83;1.55;;;;;;;;;;4939970;28;20126;-70
2023/05/23 09:21:33;;;;;;;1.77;1.30;;;;;;;;;;4914016;28;20027;-70
2023/05/23 09:23:59;;;;;;;1.92;1.20;;;;;;;;;;4938115;28;20061;-70
2023/05/23 09:26:24;;;;;;;2.03;1.45;;;;;;;;;;4939711;28;21189;-69
2023/05/23 09:28:50;;;;;;;1.88;1.30;;;;;;;;;;4940771;28;20802;-70
2023/05/23 09:31:15;;;;;;;1.80;1.10;;;;;;;;;;4940720;28;20035;-69
2023/05/23 09:33:47;;;;;;;2.63;1.50;;;;;;;;;;4927747;28;20046;-69
2023/05/23 09:36:13;;;;;;;2.40;1.55;;;;;;;;;;4916834;28;20043;-69
2023/05/23 09:38:41;;;;;;;1.92;1.45;;;;;;;;;;4933200;28;20044;-69
2023/05/23 09:41:07;;;;;;;3.10;1.83;;;;;;;;;;4925913;28;20035;-69
2023/05/23 09:43:33;;;;;;;2.72;1.60;;;;;;;;;;4940898;28;20046;-69
2023/05/23 09:46:09;;;;;;;2.45;1.52;;;;;;;;;;4939982;28;20127;-69
2023/05/23 09:48:36;;;;;;;3.10;2.30;;;;;;;;;;4915055;28;20082;-69
2023/05/23 09:51:05;;;;;;;2.72;1.85;;;;;;;;;;4937312;28;20290;-69
2023/05/23 09:53:31;;;;;;;1.95;1.50;;;;;;;;;;4935416;28;20095;-69
2023/05/23 09:55:58;;;;;;;2.78;1.60;;;;;;;;;;4937821;28;20046;-69
2023/05/23 09:58:26;;;;;;;1.85;1.30;;;;;;;;;;4934238;28;20153;-69
2023/05/23 10:00:54;;;;;;;2.17;1.20;;;;;;;;;;4916564;28;20137;-69
2023/05/23 10:03:30;;;;;;;3.13;1.40;;;;;;;;;;4916993;28;20083;-68
2023/05/23 10:06:00;;;;;;;2.45;1.45;;;;;;;;;;4939590;28;20060;-68
2023/05/23 10:08:45;;;;;;;2.38;1.40;;;;;;;;;;4935608;28;20074;-68
2023/05/23 10:11:15;;;;;;;1.80;1.33;;;;;;;;;;4938157;28;20041;-68
2023/05/23 10:13:43;;;;;;;2.67;1.50;;;;;;;;;;4883738;28;20126;-68
2023/05/23 10:16:11;;;;;;;1.80;1.20;;;;;;;;;;4933488;28;20039;-68
2023/05/23 10:18:43;;;;;;;1.40;1.00;;;;;;;;;;4934877;28;20074;-68
2023/05/23 10:21:14;;;;;;;1.75;1.20;;;;;;;;;;4923791;28;20122;-69
2023/05/23 10:23:41;;;;;;;1.30;1.02;;;;;;;;;;4928135;28;20077;-68
2023/05/23 10:26:06;;;;;;;1.75;1.10;;;;;;;;;;4912502;28;20130;-69
2023/05/23 10:28:32;;;;;;;1.35;0.90;;;;;;;;;;4937458;28;20046;-68
2023/05/23 10:30:58;;;;;;;1.52;1.10;;;;;;;;;;4929649;28;20055;-68
2023/05/23 10:33:26;;;;;;;1.67;1.15;;;;;;;;;;4931013;28;20043;-68
2023/05/23 10:36:09;;;;;;;1.60;1.00;;;;;;;;;;4935668;28;20115;-68
2023/05/23 10:38:43;;;;;;;1.65;1.08;;;;;;;;;;4908051;28;20051;-68
2023/05/23 10:41:24;;;;;;;1.00;0.90;;;;;;;;;;4935379;28;20432;-68
2023/05/23 10:43:50;;;;;;;1.00;0.90;;;;;;;;;;4930066;28;20436;-68
2023/05/23 10:46:19;;;;;;;2.08;1.00;;;;;;;;;;4937269;28;20047;-68
2023/05/23 10:48:45;;;;;;;1.55;0.80;;;;;;;;;;4933835;28;20081;-68
2023/05/23 10:51:13;;;;;;;1.27;0.98;;;;;;;;;;4914658;28;20058;-68
2023/05/23 10:53:41;;;;;;;3.05;1.88;;;;;;;;;;4932331;28;20040;-68
2023/05/23 10:56:08;;;;;;;2.45;1.30;;;;;;;;;;4930966;28;20051;-69
2023/05/23 10:58:35;;;;;;;3.35;1.38;;;;;;;;;;4935105;28;20118;-68
2023/05/23 11:01:08;;;;;;;1.73;1.40;;;;;;;;;;4931711;28;20032;-69
2023/05/23 11:03:36;;;;;;;2.67;1.73;;;;;;;;;;4927942;28;20141;-69
2023/05/23 11:06:04;;;;;;;4.75;1.55;;;;;;;;;;4891893;28;20035;-69
2023/05/23 11:08:37;;;;;;;1.98;1.40;;;;;;;;;;4931658;28;20054;-69
2023/05/23 11:11:03;;;;;;;2.72;1.23;;;;;;;;;;4926829;28;20043;-69
2023/05/23 11:13:58;;;;;;;3.65;2.00;;;;;;;;;;4934737;28;20077;-69
2023/05/23 11:16:40;;;;;;;4.50;2.00;;;;;;;;;;4909878;28;20534;-69
2023/05/23 11:19:17;;;;;;;3.80;2.30;;;;;;;;;;4931118;28;20047;-69
2023/05/23 11:21:58;;;;;;;4.90;2.65;;;;;;;;;;4932372;28;20035;-69
2023/05/23 11:24:48;;;;;;;5.03;3.15;;;;;;;;;;4932890;28;20043;-69
2023/05/23 11:27:13;;;;;;;4.63;2.85;;;;;;;;;;4911057;28;20042;-69
2023/05/23 11:29:39;;;;;;;6.82;2.70;;;;;;;;;;4934710;28;20047;-69
2023/05/23 11:32:12;;;;;;;3.70;2.38;;;;;;;;;;4930312;28;20469;-69
2023/05/23 11:34:38;;;;;;;5.55;2.70;;;;;;;;;;4935411;28;20070;-69
2023/05/23 11:37:03;;;;;;;3.65;2.38;;;;;;;;;;4932523;28;20059;-69
2023/05/23 11:39:29;;;;;;;3.58;2.03;;;;;;;;;;4914967;28;20782;-69
2023/05/23 11:41:58;;;;;;;3.33;1.50;;;;;;;;;;4929991;28;20050;-69
2023/05/23 11:44:24;;;;;;;3.13;1.83;;;;;;;;;;4936474;28;20059;-69
2023/05/23 11:47:06;;;;;;;2.22;1.55;;;;;;;;;;4932478;28;20142;-69
2023/05/23 11:49:36;;;;;;;2.17;1.52;;;;;;;;;;4934531;28;20039;-69
2023/05/23 11:52:02;;;;;;;1.90;1.20;;;;;;;;;;4913032;28;20468;-68
2023/05/23 11:54:28;;;;;;;2.70;1.42;;;;;;;;;;4935996;28;20097;-68
2023/05/23 11:56:54;;;;;;;2.00;1.40;;;;;;;;;;4933847;28;20115;-68
2023/05/23 11:59:24;;;;;;;2.25;1.35;;;;;;;;;;4925508;28;20055;-68
2023/05/23 12:01:50;;;;;;;1.42;1.00;;;;;;;;;;4928408;28;20597;-68
2023/05/23 12:04:16;;;;;;;1.00;0.90;;;;;;;;;;4932812;28;20122;-69
2023/05/23 12:06:41;;;;;;;2.45;0.80;;;;;;;;;;4920849;28;20048;-69
2023/05/23 12:09:10;;;;;;;1.33;0.88;;;;;;;;;;4936064;28;20086;-68
2023/05/23 12:11:36;;;;;;;1.48;1.02;;;;;;;;;;4933798;28;20145;-68
2023/05/23 12:14:05;;;;;;;1.55;1.08;;;;;;;;;;4933824;28;20126;-68
2023/05/23 12:16:34;;;;;;;2.33;1.20;;;;;;;;;;4932477;28;20050;-68
2023/05/23 12:19:01;;;;;;;1.27;0.90;;;;;;;;;;4917634;28;20589;-68
2023/05/23 12:21:43;;;;;;;1.70;1.02;;;;;;;;;;4940405;28;20057;-68
2023/05/23 12:24:19;;;;;;;1.35;0.98;;;;;;;;;;4936682;28;20043;-68
2023/05/23 12:26:53;;;;;;;2.22;1.45;;;;;;;;;;4939515;28;20051;-68
2023/05/23 12:29:26;;;;;;;1.42;0.80;;;;;;;;;;4922258;28;20058;-69
2023/05/23 12:31:52;;;;;;;1.30;0.95;;;;;;;;;;4940412;28;20708;-69
2023/05/23 12:34:19;;;;;;;1.67;1.20;;;;;;;;;;4940285;28;20050;-68
2023/05/23 12:36:47;;;;;;;1.38;1.00;;;;;;;;;;4941684;28;20570;-68
2023/05/23 12:39:13;;;;;;;2.03;1.17;;;;;;;;;;4940320;28;20039;-68
2023/05/23 12:41:42;;;;;;;1.98;0.85;;;;;;;;;;4941645;28;20503;-68
2023/05/23 12:44:07;;;;;;;2.33;1.25;;;;;;;;;;4898905;28;20119;-68
2023/05/23 12:46:32;;;;;;;1.05;0.90;;;;;;;;;;4940679;28;20178;-68
2023/05/23 12:48:58;;;;;;;1.83;1.10;;;;;;;;;;4939776;28;20066;-68
2023/05/23 12:51:23;;;;;;;2.17;1.63;;;;;;;;;;4941394;28;20497;-68
2023/05/23 12:53:49;;;;;;;2.35;1.40;;;;;;;;;;4940644;28;20061;-68
2023/05/23 12:56:15;;;;;;;1.85;1.10;;;;;;;;;;4932724;28;20573;-68
2023/05/23 12:58:40;;;;;;;2.53;1.08;;;;;;;;;;4935141;28;20039;-68
2023/05/23 13:01:06;;;;;;;1.77;1.50;;;;;;;;;;4936102;28;20035;-69
2023/05/23 13:03:31;;;;;;;2.63;1.50;;;;;;;;;;4938137;28;20046;-68
2023/05/23 13:05:57;;;;;;;2.50;1.80;;;;;;;;;;4938178;28;20792;-69
2023/05/23 13:08:23;;;;;;;2.95;1.95;;;;;;;;;;4940843;28;20560;-68
2023/05/23 13:10:49;;;;;;;3.50;2.00;;;;;;;;;;4926940;28;20054;-69
2023/05/23 13:13:14;;;;;;;3.38;1.92;;;;;;;;;;4927550;28;20070;-68
2023/05/23 13:15:40;;;;;;;3.08;2.22;;;;;;;;;;4935270;28;20072;-69
2023/05/23 13:18:05;;;;;;;3.47;2.75;;;;;;;;;;4932592;28;20046;-68
2023/05/23 13:20:31;;;;;;;4.57;2.75;;;;;;;;;;4939790;28;20122;-68
2023/05/23 13:22:57;;;;;;;3.55;2.60;;;;;;;;;;4942226;28;20511;-68
2023/05/23 13:25:23;;;;;;;4.70;2.65;;;;;;;;;;4921905;28;20082;-68
2023/05/23 13:27:48;;;;;;;4.40;2.72;;;;;;;;;;4910273;28;20520;-68
2023/05/23 13:30:14;;;;;;;5.68;2.78;;;;;;;;;;4921109;28;20077;-69
2023/05/23 13:32:39;;;;;;;4.55;2.80;;;;;;;;;;4929916;28;20500;-69
2023/05/23 13:35:05;;;;;;;3.08;2.38;;;;;;;;;;4931128;28;20562;-68
2023/05/23 13:37:31;;;;;;;4.07;2.60;;;;;;;;;;4927662;28;20130;-68
2023/05/23 13:39:56;;;;;;;3.90;2.10;;;;;;;;;;4912335;28;20042;-68
2023/05/23 13:42:21;;;;;;;3.50;2.40;;;;;;;;;;4933584;28;20117;-69
2023/05/23 13:44:47;;;;;;;3.72;2.45;;;;;;;;;;4931131;28;20062;-69
2023/05/23 13:47:14;;;;;;;4.05;2.83;;;;;;;;;;4927073;28;20051;-70
2023/05/23 13:49:40;;;;;;;5.35;3.03;;;;;;;;;;4913080;28;20134;-69
2023/05/23 13:52:06;;;;;;;3.83;3.03;;;;;;;;;;4915152;28;20031;-69
2023/05/23 13:54:32;;;;;;;5.20;2.88;;;;;;;;;;4909451;28;20045;-69
2023/05/23 13:56:59;;;;;;;4.45;2.58;;;;;;;;;;4931743;28;20048;-70
2023/05/23 13:59:27;;;;;;;5.15;3.13;;;;;;;;;;4924589;28;20046;-69
2023/05/23 14:01:53;;;;;;;5.75;3.97;;;;;;;;;;4935322;28;20038;-69
2023/05/23 14:04:18;;;;;;;7.05;3.83;;;;;;;;;;4918309;28;20562;-70
2023/05/23 14:06:44;;;;;;;4.78;3.35;;;;;;;;;;4929444;28;20035;-70
2023/05/23 14:09:11;;;;;;;17.17;10.57;;;;;;;;;;4928669;28;20043;-69
2023/05/23 14:11:37;;;;;;;4.45;2.60;;;;;;;;;;4932874;28;20042;-69
2023/05/23 14:14:02;;;;;;;5.55;2.95;;;;;;;;;;4936413;28;20050;-69
2023/05/23 14:16:28;;;;;;;4.88;3.58;;;;;;;;;;4922112;28;20054;-69
2023/05/23 14:18:53;;;;;;;6.32;3.65;;;;;;;;;;4937644;28;20027;-69
2023/05/23 14:21:20;;;;;;;8.40;4.10;;;;;;;;;;4922672;28;20054;-69
2023/05/23 14:23:45;;;;;;;5.50;3.92;;;;;;;;;;4929417;28;20645;-69
2023/05/23 14:26:11;;;;;;;5.32;3.40;;;;;;;;;;4941438;28;20073;-69
2023/05/23 14:28:36;;;;;;;6.68;3.42;;;;;;;;;;4942610;28;20031;-69
2023/05/23 14:31:01;;;;;;;5.40;3.88;;;;;;;;;;4935968;28;20108;-70
2023/05/23 14:33:27;;;;;;;8.25;4.28;;;;;;;;;;4934814;28;20047;-69
2023/05/23 14:35:53;;;;;;;5.95;3.63;;;;;;;;;;4915216;28;20093;-69
2023/05/23 14:38:19;;;;;;;4.78;3.28;;;;;;;;;;4940287;28;20219;-69
2023/05/23 14:40:45;;;;;;;5.80;3.60;;;;;;;;;;4938959;28;20043;-68